createdAt,value
2023-02-02T00:00:21.882Z,99491.44
2023-02-02T00:02:54.160Z,99485.16
2023-02-02T00:05:23.723Z,99494.19
2023-02-02T00:07:57.169Z,99522.44
2023-02-02T00:10:26.629Z,99510.84
2023-02-02T00:13:00.675Z,99503.22
2023-02-02T00:15:37.241Z,99504.84
2023-02-02T00:18:06.814Z,99512.16
2023-02-02T00:20:38.775Z,99499.09
2023-02-02T00:23:07.473Z,99487.44
2023-02-02T00:25:38.651Z,99467.91
2023-02-02T00:28:08.741Z,99463.28
2023-02-02T00:30:43.532Z,99433.84
2023-02-02T00:33:11.642Z,99431.69
2023-02-02T00:35:50.781Z,99414.16
2023-02-02T00:38:21.532Z,99419.63
2023-02-02T00:40:51.083Z,99399.31
2023-02-02T00:43:23.766Z,99422.22
2023-02-02T00:46:01.330Z,99430.56
2023-02-02T00:48:30.579Z,99409.53
2023-02-02T00:50:59.391Z,99412.69
2023-02-02T00:53:28.741Z,99408.34
2023-02-02T00:56:00.126Z,99432.75
2023-02-02T00:58:32.523Z,99414.72
2023-02-02T01:01:13.810Z,99404.22
2023-02-02T01:03:45.317Z,99416.44
2023-02-02T01:06:30.048Z,99443.38
2023-02-02T01:09:03.934Z,99440.94
2023-02-02T01:11:34.569Z,99441.22
2023-02-02T01:14:03.916Z,99434.81
2023-02-02T01:16:37.903Z,99431.19
2023-02-02T01:19:15.016Z,99435.00
2023-02-02T01:21:48.885Z,99456.00
2023-02-02T01:24:20.523Z,99469.06
2023-02-02T01:26:51.593Z,99454.41
2023-02-02T01:29:28.695Z,99475.22
2023-02-02T01:32:01.197Z,99453.72
2023-02-02T01:34:38.679Z,99457.97
2023-02-02T01:37:10.731Z,99441.22
2023-02-02T01:39:40.340Z,99418.19
2023-02-02T01:42:17.727Z,99397.69
2023-02-02T01:45:34.817Z,99422.81
2023-02-02T01:48:07.112Z,99401.22
2023-02-02T01:50:38.217Z,99390.59
2023-02-02T01:53:08.686Z,99398.78
2023-02-02T01:55:41.043Z,99411.16
2023-02-02T01:58:13.315Z,99411.66
2023-02-02T02:00:43.247Z,99431.47
2023-02-02T02:03:19.753Z,99405.13
2023-02-02T02:05:52.809Z,99417.50
2023-02-02T02:08:25.990Z,99406.38
2023-02-02T02:11:07.277Z,99430.03
2023-02-02T02:14:00.851Z,99416.50
2023-02-02T02:16:48.193Z,99431.81
2023-02-02T02:20:05.500Z,99432.88
2023-02-02T02:23:11.848Z,99422.69
2023-02-02T02:26:15.069Z,99440.03
2023-02-02T02:29:11.934Z,99430.81
2023-02-02T02:32:02.788Z,99428.72
2023-02-02T02:34:41.992Z,99422.56
2023-02-02T02:37:13.256Z,99430.38
2023-02-02T02:39:56.590Z,99426.59
2023-02-02T02:42:30.463Z,99419.69
2023-02-02T02:45:07.148Z,99422.06
2023-02-02T02:47:43.395Z,99417.41
2023-02-02T02:50:13.491Z,99414.81
2023-02-02T02:52:49.385Z,99406.78
2023-02-02T02:55:18.895Z,99414.84
2023-02-02T02:58:02.080Z,99411.03
2023-02-02T03:00:53.378Z,99406.50
2023-02-02T03:03:42.594Z,99412.94
2023-02-02T03:06:21.583Z,99402.28
2023-02-02T03:08:57.445Z,99396.91
2023-02-02T03:11:26.354Z,99403.69
2023-02-02T03:13:56.641Z,99409.34
2023-02-02T03:16:25.261Z,99402.47
2023-02-02T03:19:11.578Z,99415.47
2023-02-02T03:21:42.860Z,99413.09
2023-02-02T03:24:12.377Z,99419.84
2023-02-02T03:26:44.879Z,99404.34
2023-02-02T03:29:16.214Z,99411.84
2023-02-02T03:32:02.590Z,99388.91
2023-02-02T03:34:33.457Z,99391.53
2023-02-02T03:37:04.640Z,99404.53
2023-02-02T03:39:41.701Z,99409.13
2023-02-02T03:42:13.661Z,99415.94
2023-02-02T03:44:43.039Z,99407.50
2023-02-02T03:47:14.517Z,99401.38
2023-02-02T03:49:54.275Z,99398.84
2023-02-02T03:52:31.200Z,99405.72
2023-02-02T03:55:08.346Z,99396.97
2023-02-02T03:57:37.514Z,99396.25
2023-02-02T04:00:08.879Z,99394.84
2023-02-02T04:02:40.645Z,99391.28
2023-02-02T04:05:15.670Z,99398.34
2023-02-02T04:07:50.058Z,99387.78
2023-02-02T04:10:22.629Z,99388.34
2023-02-02T04:12:52.761Z,99394.63
2023-02-02T04:15:22.238Z,99415.75
2023-02-02T04:17:51.372Z,99425.97
2023-02-02T04:20:24.804Z,99410.97
2023-02-02T04:22:55.934Z,99408.03
2023-02-02T04:25:26.684Z,99407.78
2023-02-02T04:27:56.344Z,99408.53
2023-02-02T04:30:34.305Z,99425.16
2023-02-02T04:33:05.448Z,99414.47
2023-02-02T04:35:37.890Z,99417.72
2023-02-02T04:38:07.304Z,99419.19
2023-02-02T04:40:39.860Z,99425.53
2023-02-02T04:43:12.025Z,99421.00
2023-02-02T04:45:40.677Z,99427.25
2023-02-02T04:48:10.359Z,99416.41
2023-02-02T04:50:45.628Z,99416.53
2023-02-02T04:53:18.469Z,99413.59
2023-02-02T04:55:49.499Z,99410.34
2023-02-02T04:58:21.187Z,99409.59
2023-02-02T05:00:54.670Z,99401.56
2023-02-02T05:03:38.174Z,99391.84
2023-02-02T05:06:25.262Z,99381.84
2023-02-02T05:08:54.411Z,99405.13
2023-02-02T05:11:24.503Z,99424.69
2023-02-02T05:13:55.730Z,99404.94
2023-02-02T05:16:29.028Z,99415.53
2023-02-02T05:18:59.752Z,99419.53
2023-02-02T05:21:30.096Z,99427.69
2023-02-02T05:24:03.683Z,99427.44
2023-02-02T05:26:32.770Z,99434.31
2023-02-02T05:29:04.003Z,99422.31
2023-02-02T05:31:35.123Z,99429.06
2023-02-02T05:34:05.071Z,99436.56
2023-02-02T05:36:38.840Z,99431.19
2023-02-02T05:39:15.695Z,99441.53
2023-02-02T05:41:44.486Z,99443.44
2023-02-02T05:44:25.649Z,99424.84
2023-02-02T05:46:57.078Z,99441.94
2023-02-02T05:49:26.652Z,99445.09
2023-02-02T05:52:03.511Z,99435.81
2023-02-02T05:54:33.139Z,99451.44
2023-02-02T05:57:04.182Z,99455.41
2023-02-02T05:59:33.715Z,99467.16
2023-02-02T06:02:02.386Z,99460.94
2023-02-02T06:04:33.944Z,99477.16
2023-02-02T06:07:06.275Z,99478.75
2023-02-02T06:09:35.809Z,99466.97
2023-02-02T06:12:09.590Z,99484.16
2023-02-02T06:14:41.891Z,99497.47
2023-02-02T06:17:10.548Z,99494.25
2023-02-02T06:19:40.856Z,99506.84
2023-02-02T06:22:20.051Z,99513.28
2023-02-02T06:24:55.967Z,99503.59
2023-02-02T06:27:24.774Z,99514.84
2023-02-02T06:29:56.341Z,99511.44
2023-02-02T06:32:25.700Z,99522.97
2023-02-02T06:34:57.363Z,99517.31
2023-02-02T06:37:30.799Z,99518.97
2023-02-02T06:40:00.456Z,99539.41
2023-02-02T06:42:30.731Z,99528.94
2023-02-02T06:45:01.362Z,99538.22
2023-02-02T06:47:29.969Z,99539.91
2023-02-02T06:50:04.860Z,99563.63
2023-02-02T06:52:35.924Z,99549.66
2023-02-02T06:55:05.346Z,99555.44
2023-02-02T06:57:42.423Z,99561.19
2023-02-02T07:00:14.644Z,99587.09
2023-02-02T07:02:49.217Z,99582.09
2023-02-02T07:05:21.713Z,99580.44
2023-02-02T07:07:52.275Z,99569.66
2023-02-02T07:11:13.571Z,99564.72
2023-02-02T07:13:21.046Z,99563.75
2023-02-02T07:15:52.626Z,99579.28
2023-02-02T07:18:22.956Z,99582.28
2023-02-02T07:20:52.303Z,99575.31
2023-02-02T07:23:30.666Z,99590.75
2023-02-02T07:26:15.417Z,99588.13
2023-02-02T07:28:46.933Z,99590.69
2023-02-02T07:31:26.903Z,99588.13
2023-02-02T07:34:19.272Z,99590.13
2023-02-02T07:36:51.057Z,99586.38
2023-02-02T07:39:28.892Z,99596.84
2023-02-02T07:41:58.527Z,99591.97
2023-02-02T07:44:37.693Z,99602.50
2023-02-02T07:47:07.525Z,99601.34
2023-02-02T07:49:36.661Z,99599.75
2023-02-02T07:52:12.281Z,99601.72
2023-02-02T07:54:41.987Z,99577.59
2023-02-02T07:57:18.288Z,99624.59
2023-02-02T07:59:47.392Z,99609.75
2023-02-02T08:02:18.204Z,99613.44
2023-02-02T08:04:48.535Z,99620.13
2023-02-02T08:07:16.623Z,99623.50
2023-02-02T08:09:54.151Z,99619.41
2023-02-02T08:12:29.286Z,99624.50
2023-02-02T08:15:00.252Z,99622.84
2023-02-02T08:17:33.296Z,99620.00
2023-02-02T08:20:03.909Z,99621.38
2023-02-02T08:22:32.876Z,99618.34
2023-02-02T08:25:03.833Z,99618.94
2023-02-02T08:27:33.578Z,99620.22
2023-02-02T08:30:05.266Z,99624.28
2023-02-02T08:32:36.296Z,99619.25
2023-02-02T08:35:15.744Z,99615.69
2023-02-02T08:37:45.883Z,99625.09
2023-02-02T08:40:34.931Z,99632.50
2023-02-02T08:43:04.813Z,99630.59
2023-02-02T08:46:04.240Z,99631.66
2023-02-02T08:48:28.428Z,99642.09
2023-02-02T08:51:00.051Z,99626.72
2023-02-02T08:53:29.032Z,99646.47
2023-02-02T08:56:19.278Z,99648.16
2023-02-02T08:58:51.471Z,99653.84
2023-02-02T09:01:23.383Z,99659.78
2023-02-02T09:04:02.506Z,99652.56
2023-02-02T09:06:37.371Z,99661.06
2023-02-02T09:09:07.991Z,99657.16
2023-02-02T09:11:40.182Z,99663.19
2023-02-02T09:14:10.324Z,99662.75
2023-02-02T09:16:40.488Z,99665.47
2023-02-02T09:19:22.708Z,99663.59
2023-02-02T09:21:54.968Z,99655.69
2023-02-02T09:24:26.259Z,99656.16
2023-02-02T09:26:57.801Z,99653.63
2023-02-02T09:29:28.589Z,99670.97
2023-02-02T09:31:59.832Z,99652.94
2023-02-02T09:34:36.722Z,99664.81
2023-02-02T09:37:07.687Z,99669.56
2023-02-02T09:39:37.511Z,99662.13
2023-02-02T09:42:52.465Z,99655.38
2023-02-02T09:45:54.738Z,99658.97
2023-02-02T09:48:32.128Z,99672.50
2023-02-02T09:51:06.483Z,99662.75
2023-02-02T09:53:55.988Z,99658.53
2023-02-02T09:56:32.840Z,99676.06
2023-02-02T09:59:19.217Z,99654.94
2023-02-02T10:01:56.743Z,99666.50
2023-02-02T10:04:31.344Z,99681.28
2023-02-02T10:07:08.568Z,99666.50
2023-02-02T10:09:46.716Z,99665.13
2023-02-02T10:12:47.408Z,99667.25
2023-02-02T10:15:25.812Z,99695.00
2023-02-02T10:18:00.789Z,99679.00
2023-02-02T10:20:47.268Z,99684.72
2023-02-02T10:23:27.724Z,99698.16
2023-02-02T10:25:59.149Z,99681.84
2023-02-02T10:28:42.845Z,99691.91
2023-02-02T10:31:23.510Z,99684.41
2023-02-02T10:34:05.968Z,99677.31
2023-02-02T10:36:47.816Z,99683.13
2023-02-02T10:39:27.371Z,99693.59
2023-02-02T10:42:08.208Z,99686.09
2023-02-02T10:44:41.763Z,99674.13
2023-02-02T10:47:16.556Z,99671.81
2023-02-02T10:49:51.825Z,99685.38
2023-02-02T10:52:34.106Z,99676.91
2023-02-02T10:55:12.375Z,99663.91
2023-02-02T10:57:50.613Z,99685.16
2023-02-02T11:00:31.792Z,99677.00
2023-02-02T11:03:07.447Z,99678.81
2023-02-02T11:05:57.828Z,99683.84
2023-02-02T11:08:33.163Z,99695.00
2023-02-02T11:11:16.103Z,99678.81
2023-02-02T11:13:51.463Z,99674.47
2023-02-02T11:16:49.224Z,99680.19
2023-02-02T11:19:30.275Z,99689.38
2023-02-02T11:22:04.248Z,99701.50
2023-02-02T11:24:42.524Z,99695.72
2023-02-02T11:27:18.335Z,99681.75
2023-02-02T11:29:49.921Z,99703.41
2023-02-02T11:32:21.407Z,99682.16
2023-02-02T11:34:52.626Z,99681.94
2023-02-02T11:37:28.729Z,99686.56
2023-02-02T11:40:23.533Z,99686.88
2023-02-02T11:42:54.918Z,99676.75
2023-02-02T11:45:34.022Z,99681.91
2023-02-02T11:48:18.499Z,99680.38
2023-02-02T11:50:50.992Z,99684.03
2023-02-02T11:53:31.751Z,99677.69
2023-02-02T11:56:06.281Z,99682.47
2023-02-02T11:58:46.870Z,99679.72
2023-02-02T12:01:30.876Z,99681.41
2023-02-02T12:04:01.555Z,99723.28
2023-02-02T12:06:38.981Z,99671.53
2023-02-02T12:09:19.813Z,99684.44
2023-02-02T12:12:00.085Z,99676.25
2023-02-02T12:14:37.859Z,99665.88
2023-02-02T12:17:30.356Z,99661.75
2023-02-02T12:20:36.500Z,99661.88
2023-02-02T12:23:22.306Z,99656.47
2023-02-02T12:26:25.491Z,99666.09
2023-02-02T12:29:19.795Z,99647.63
2023-02-02T12:32:04.347Z,99673.00
2023-02-02T12:34:46.346Z,99658.28
2023-02-02T12:37:20.081Z,99649.19
2023-02-02T12:40:04.543Z,99644.75
2023-02-02T12:43:29.167Z,99624.34
2023-02-02T12:46:23.449Z,99634.69
2023-02-02T12:49:09.333Z,99652.38
2023-02-02T12:51:53.072Z,99639.13
2023-02-02T12:54:47.518Z,99640.84
2023-02-02T12:57:32.320Z,99650.38
2023-02-02T13:00:26.930Z,99660.09
2023-02-02T13:03:36.001Z,99632.38
2023-02-02T13:06:49.692Z,99645.06
2023-02-02T13:09:24.006Z,99635.75
2023-02-02T13:11:56.446Z,99630.69
2023-02-02T13:14:29.174Z,99631.13
2023-02-02T13:17:09.324Z,99632.59
2023-02-02T13:19:42.632Z,99623.28
2023-02-02T13:22:20.236Z,99644.75
2023-02-02T13:24:55.583Z,99630.25
2023-02-02T13:27:35.768Z,99637.66
2023-02-02T13:30:19.863Z,99639.03
2023-02-02T13:32:55.995Z,99642.63
2023-02-02T13:35:32.382Z,99633.75
2023-02-02T13:38:10.580Z,99636.50
2023-02-02T13:40:49.370Z,99624.75
2023-02-02T13:43:51.300Z,99642.63
2023-02-02T13:46:41.970Z,99649.41
2023-02-02T13:49:19.698Z,99644.66
2023-02-02T13:52:31.191Z,99643.91
2023-02-02T13:55:33.160Z,99649.50
2023-02-02T13:58:32.281Z,99655.00
2023-02-02T14:01:11.389Z,99676.34
2023-02-02T14:03:44.133Z,99674.78
2023-02-02T14:06:30.974Z,99667.88
2023-02-02T14:09:04.339Z,99697.91
2023-02-02T14:11:35.014Z,99675.28
2023-02-02T14:14:29.409Z,99677.84
2023-02-02T14:16:58.321Z,99702.78
2023-02-02T14:20:06.121Z,99704.09
2023-02-02T14:22:55.916Z,99689.00
2023-02-02T14:26:05.180Z,99714.88
2023-02-02T14:28:50.035Z,99722.91
2023-02-02T14:31:29.785Z,99701.34
2023-02-02T14:34:36.478Z,99691.75
2023-02-02T14:37:42.050Z,99716.59
2023-02-02T14:40:32.502Z,99707.19
2023-02-02T14:43:30.308Z,99718.81
2023-02-02T14:46:23.849Z,99717.50
2023-02-02T14:49:24.095Z,99734.13
2023-02-02T14:51:56.419Z,99740.59
2023-02-02T14:54:32.669Z,99716.50
2023-02-02T14:57:21.391Z,99730.41
2023-02-02T15:00:01.323Z,99732.75
2023-02-02T15:02:37.847Z,99725.47
2023-02-02T15:05:46.503Z,99750.13
2023-02-02T15:08:29.768Z,99745.88
2023-02-02T15:11:32.654Z,99746.66
2023-02-02T15:14:17.367Z,99734.53
2023-02-02T15:16:47.740Z,99737.72
2023-02-02T15:19:38.660Z,99758.75
2023-02-02T15:22:29.845Z,99755.59
2023-02-02T15:25:00.682Z,99767.06
2023-02-02T15:27:30.962Z,99750.66
2023-02-02T15:30:18.846Z,99766.22
2023-02-02T15:32:49.388Z,99766.66
2023-02-02T15:35:23.511Z,99758.25
2023-02-02T15:38:04.681Z,99775.81
2023-02-02T15:40:38.828Z,99777.94
2023-02-02T15:43:10.029Z,99782.91
2023-02-02T15:46:04.867Z,99783.78
2023-02-02T15:48:40.521Z,99798.84
2023-02-02T15:51:24.580Z,99812.94
2023-02-02T15:53:53.589Z,99805.28
2023-02-02T15:56:34.335Z,99806.53
2023-02-02T15:59:06.011Z,99807.47
2023-02-02T16:01:50.159Z,99822.91
2023-02-02T16:04:28.978Z,99809.63
2023-02-02T16:07:03.789Z,99836.69
2023-02-02T16:09:45.531Z,99826.50
2023-02-02T16:12:21.144Z,99838.50
2023-02-02T16:15:02.692Z,99843.38
2023-02-02T16:17:44.181Z,99848.00
2023-02-02T16:20:21.298Z,99858.75
2023-02-02T16:22:51.266Z,99864.50
2023-02-02T16:25:30.697Z,99853.66
2023-02-02T16:28:06.087Z,99872.06
2023-02-02T16:30:38.259Z,99869.09
2023-02-02T16:33:33.189Z,99886.19
2023-02-02T16:36:12.561Z,99882.72
2023-02-02T16:38:42.855Z,99894.22
2023-02-02T16:41:19.666Z,99877.13
2023-02-02T16:43:50.171Z,99896.47
2023-02-02T16:47:11.220Z,99889.88
2023-02-02T16:49:49.720Z,99899.28
2023-02-02T16:52:26.786Z,99912.56
2023-02-02T16:54:57.694Z,99918.53
2023-02-02T16:57:36.831Z,99906.06
2023-02-02T17:00:19.236Z,99909.44
2023-02-02T17:03:07.399Z,99910.03
2023-02-02T17:05:51.592Z,99933.56
2023-02-02T17:08:31.843Z,99922.78
2023-02-02T17:11:09.163Z,99922.31
2023-02-02T17:13:46.134Z,99934.34
2023-02-02T17:16:19.181Z,99930.09
2023-02-02T17:18:54.309Z,99922.38
2023-02-02T17:21:34.083Z,99943.94
2023-02-02T17:24:08.187Z,99936.19
2023-02-02T17:29:39.187Z,99949.03
2023-02-02T17:32:09.782Z,99940.38
2023-02-02T17:34:51.862Z,99955.94
2023-02-02T17:37:32.542Z,99954.59
2023-02-02T17:40:19.440Z,99957.88
2023-02-02T17:43:00.165Z,99955.25
2023-02-02T17:45:39.087Z,99961.31
2023-02-02T17:48:17.236Z,99961.69
2023-02-02T17:50:55.295Z,99990.41
2023-02-02T17:53:33.576Z,99974.63
2023-02-02T17:56:12.186Z,99985.97
2023-02-02T17:58:42.982Z,99975.31
2023-02-02T18:01:25.264Z,100010.31
2023-02-02T18:03:59.343Z,99994.75
2023-02-02T18:06:37.372Z,99986.16
2023-02-02T18:09:19.460Z,100001.63
2023-02-02T18:11:51.815Z,100004.88
2023-02-02T18:14:21.673Z,99988.44
2023-02-02T18:16:55.468Z,99995.25
2023-02-02T18:19:28.003Z,99985.63
2023-02-02T18:22:01.188Z,100002.19
2023-02-02T18:24:38.600Z,100012.72
2023-02-02T18:33:27.886Z,100009.09
2023-02-02T18:36:01.556Z,100000.28
2023-02-02T18:41:25.275Z,100024.22
2023-02-02T18:44:04.758Z,100006.16
2023-02-02T18:46:46.692Z,100006.16
2023-02-02T18:58:40.651Z,100037.88
2023-02-02T19:01:14.789Z,100071.66
2023-02-02T19:03:44.685Z,100074.16
2023-02-02T19:09:24.548Z,100085.63
2023-02-02T19:12:03.842Z,100094.41
2023-02-02T19:14:40.916Z,100095.47
2023-02-02T19:17:28.246Z,100088.59
2023-02-02T19:20:09.538Z,100100.88
2023-02-02T19:22:45.805Z,100087.84
2023-02-02T19:25:26.872Z,100109.09
2023-02-02T19:27:58.702Z,100112.84
2023-02-02T19:30:34.895Z,100116.16
2023-02-02T19:33:08.626Z,100110.91
2023-02-02T19:35:49.307Z,100123.78
2023-02-02T19:38:20.731Z,100102.75
2023-02-02T19:41:07.523Z,100137.72
2023-02-02T19:43:50.318Z,100113.56
2023-02-02T19:46:36.419Z,100131.25
2023-02-02T19:49:18.432Z,100125.38
2023-02-02T19:51:53.838Z,100129.81
2023-02-02T19:54:46.528Z,100128.88
2023-02-02T19:57:27.742Z,100151.75
2023-02-02T20:00:01.389Z,100130.13
2023-02-02T20:03:07.912Z,100138.47
2023-02-02T20:05:44.816Z,100143.84
2023-02-02T20:14:54.194Z,100172.28
2023-02-02T20:20:46.860Z,100175.84
2023-02-02T20:23:38.826Z,100169.28
2023-02-02T20:32:18.682Z,100203.03
2023-02-02T20:35:00.714Z,100174.25
2023-02-02T20:43:38.889Z,100185.38
2023-02-02T20:46:19.498Z,100202.31
2023-02-02T20:58:04.652Z,100215.84
2023-02-02T21:00:43.174Z,100220.53
2023-02-02T21:03:22.331Z,100228.00
2023-02-02T21:05:53.024Z,100238.69
2023-02-02T21:08:23.427Z,100226.56
2023-02-02T21:11:03.853Z,100235.09
2023-02-02T21:13:38.757Z,100252.53
2023-02-02T21:16:10.746Z,100265.56
2023-02-02T21:18:51.840Z,100258.16
2023-02-02T21:21:26.517Z,100252.63
2023-02-02T21:23:58.287Z,100256.44
2023-02-02T21:26:35.952Z,100264.28
2023-02-02T21:29:09.437Z,100281.34
2023-02-02T21:31:40.310Z,100267.50
2023-02-02T21:34:11.032Z,100258.41
2023-02-02T21:36:49.015Z,100271.41
2023-02-02T21:39:25.184Z,100264.47
2023-02-02T21:42:27.349Z,100280.03
2023-02-02T21:45:32.988Z,100273.19
2023-02-02T21:48:14.720Z,100280.38
2023-02-02T21:50:44.630Z,100285.41
2023-02-02T21:53:26.955Z,100278.72
2023-02-02T21:56:02.088Z,100303.09
2023-02-02T21:58:44.104Z,100311.88
2023-02-02T22:01:36.871Z,100313.94
2023-02-02T22:04:28.132Z,100332.75
2023-02-02T22:07:00.411Z,100319.63
2023-02-02T22:09:41.862Z,100321.41
2023-02-02T22:12:31.467Z,100314.19
2023-02-02T22:15:11.724Z,100339.94
2023-02-02T22:17:51.099Z,100325.72
2023-02-02T22:20:31.173Z,100338.81
2023-02-02T22:23:07.633Z,100329.94
2023-02-02T22:25:40.512Z,100342.41
2023-02-02T22:28:22.165Z,100364.44
2023-02-02T22:30:52.389Z,100333.47
2023-02-02T22:33:26.974Z,100346.16
2023-02-02T22:35:59.158Z,100354.75
2023-02-02T22:38:38.883Z,100344.13
2023-02-02T22:41:25.132Z,100351.16
2023-02-02T22:43:56.621Z,100365.44
2023-02-02T23:02:00.188Z,100366.00
2023-02-02T23:04:29.218Z,100363.22
2023-02-02T23:07:01.439Z,100374.78
2023-02-02T23:09:39.136Z,100374.78
2023-02-02T23:15:11.980Z,100380.31
2023-02-02T23:17:46.174Z,100365.63
2023-02-02T23:38:19.906Z,100389.28
2023-02-02T23:40:51.362Z,100379.75
2023-02-02T23:43:20.846Z,100392.63
2023-02-02T23:45:52.352Z,100393.72
2023-02-02T23:48:30.822Z,100402.72
2023-02-02T23:51:01.305Z,100387.06
2023-02-02T23:56:36.330Z,100410.56
2023-02-02T23:59:07.684Z,100407.38
